Time;durP1;ratioP1;P1;durP2;ratioP2;P2;SDS_P1;SDS_P2;PMS_P1;PMS_P2;Temp;Humidity;BMP_temperature;BMP_pressure;BME280_temperature;BME280_humidity;BME280_pressure;Samples;Min_cycle;Max_cycle;Signal;HPM_P1;HPM_P2
2022/12/31 00:02:24;;;;;;;6.82;2.80;;;;;;;;;;5059617;28;20081;-89
2022/12/31 00:05:12;;;;;;;6.38;1.50;;;;;;;;;;5072980;28;20537;-88
2022/12/31 00:08:00;;;;;;;8.05;2.13;;;;;;;;;;5072877;28;20043;-89
2022/12/31 00:10:51;;;;;;;7.45;2.20;;;;;;;;;;5072790;28;20031;-89
2022/12/31 00:13:39;;;;;;;8.48;2.80;;;;;;;;;;5073633;28;20035;-90
2022/12/31 00:16:37;;;;;;;5.20;3.03;;;12.30;99.90;;;;;;5073120;28;20119;-89
2022/12/31 00:19:22;;;;;;;8.05;2.25;;;;;;;;;;5057810;28;20040;-89
2022/12/31 00:22:08;;;;;;;8.27;2.92;;;;;;;;;;5072784;28;20082;-90
2022/12/31 00:24:58;;;;;;;9.15;3.05;;;;;;;;;;5072374;28;20494;-90
2022/12/31 00:27:48;;;;;;;9.15;2.40;;;;;;;;;;5072264;28;20513;-89
2022/12/31 00:30:33;;;;;;;4.97;2.20;;;;;;;;;;5059028;28;20075;-89
2022/12/31 00:33:23;;;;;;;7.40;2.47;;;;;;;;;;5072661;28;20110;-89
2022/12/31 00:36:09;;;;;;;4.60;2.60;;;;;;;;;;5058878;28;20517;-89
2022/12/31 00:38:57;;;;;;;5.97;2.53;;;;;;;;;;5060942;28;20547;-90
2022/12/31 00:41:45;;;;;;;5.57;2.88;;;;;;;;;;5072150;28;20466;-92
2022/12/31 00:44:32;;;;;;;9.98;4.47;;;;;;;;;;5072776;28;20169;-90
2022/12/31 00:47:23;;;;;;;6.68;3.25;;;;;;;;;;5061260;28;20067;-92
2022/12/31 00:50:14;;;;;;;7.50;3.60;;;;;;;;;;5072455;28;20031;-90
2022/12/31 00:53:01;;;;;;;8.60;3.97;;;;;;;;;;5071674;28;20039;-90
2022/12/31 00:55:48;;;;;;;7.85;3.53;;;;;;;;;;5057925;28;20048;-91
2022/12/31 00:58:38;;;;;;;8.15;3.85;;;;;;;;;;5072154;28;20039;-90
2022/12/31 01:01:28;;;;;;;7.40;4.20;;;;;;;;;;5073448;28;20072;-92
2022/12/31 01:04:22;;;;;;;8.98;4.43;;;;;;;;;;5059417;28;20047;-90
2022/12/31 01:07:07;;;;;;;8.40;4.60;;;;;;;;;;5058068;28;20062;-91
2022/12/31 01:09:52;;;;;;;8.55;4.63;;;;;;;;;;5071655;28;20039;-90
2022/12/31 01:12:37;;;;;;;7.75;5.20;;;;;;;;;;5073230;28;20070;-92
2022/12/31 01:15:22;;;;;;;6.88;4.55;;;;;;;;;;5072034;28;20081;-92
2022/12/31 01:18:14;;;;;;;10.20;4.85;;;;;;;;;;5071514;28;20082;-89
2022/12/31 01:21:04;;;;;;;9.32;5.13;;;;;;;;;;5058161;28;20098;-91
2022/12/31 01:23:53;;;;;;;9.43;4.70;;;;;;;;;;5071664;28;20115;-91
2022/12/31 01:26:39;;;;;;;8.15;5.15;;;;;;;;;;5071793;28;20131;-90
2022/12/31 01:29:28;;;;;;;7.75;5.00;;;;;;;;;;5071409;28;20112;-91
2022/12/31 01:32:15;;;;;;;11.50;5.32;;;;;;;;;;5072719;28;20044;-90
2022/12/31 01:35:00;;;;;;;10.20;4.90;;;;;;;;;;5071150;28;20106;-90
2022/12/31 01:37:47;;;;;;;12.52;5.70;;;;;;;;;;5071767;28;20039;-89
2022/12/31 01:40:36;;;;;;;11.45;5.25;;;;;;;;;;5072825;28;20071;-91
2022/12/31 01:43:28;;;;;;;9.80;4.95;;;;;;;;;;5071738;28;20082;-90
2022/12/31 01:46:16;;;;;;;9.95;4.95;;;;;;;;;;5058968;28;20071;-92
2022/12/31 01:49:10;;;;;;;13.98;6.80;;;;;;;;;;5071200;28;20497;-90
2022/12/31 01:52:17;;;;;;;10.35;4.05;;;;;;;;;;5072185;28;20031;-90
2022/12/31 01:55:04;;;;;;;8.75;4.50;;;;;;;;;;5071098;28;20177;-90
2022/12/31 01:57:55;;;;;;;9.52;4.88;;;11.90;99.90;;;;;;5071120;28;20155;-90
2022/12/31 02:00:43;;;;;;;9.15;4.60;;;;;;;;;;5071495;28;20039;-92
2022/12/31 02:03:31;;;;;;;10.65;4.80;;;;;;;;;;5071462;28;20056;-90
2022/12/31 02:06:31;;;;;;;10.80;4.28;;;;;;;;;;5071143;28;20574;-90
2022/12/31 02:09:21;;;;;;;12.90;5.00;;;;;;;;;;5071693;28;20520;-90
2022/12/31 02:12:10;;;;;;;6.93;4.57;;;11.90;99.90;;;;;;5070931;28;20059;-90
2022/12/31 02:14:55;;;;;;;9.27;4.82;;;;;;;;;;5070981;28;20473;-92
2022/12/31 02:17:54;;;;;;;9.85;4.40;;;;;;;;;;5058167;28;20406;-91
2022/12/31 02:20:39;;;;;;;9.18;4.57;;;;;;;;;;5064096;28;20094;-89
2022/12/31 02:23:49;;;;;;;9.85;3.95;;;11.80;99.90;;;;;;5062414;28;20031;-89
2022/12/31 02:26:55;;;;;;;8.88;4.43;;;;;;;;;;5056830;28;20044;-90
2022/12/31 02:29:51;;;;;;;6.85;3.65;;;;;;;;;;5072192;28;20048;-91
2022/12/31 02:32:36;;;;;;;8.88;3.58;;;;;;;;;;5071118;28;20045;-91
2022/12/31 02:35:26;;;;;;;4.57;3.20;;;;;;;;;;5070973;28;20052;-90
2022/12/31 02:38:15;;;;;;;7.72;2.97;;;;;;;;;;5057123;28;20090;-91
2022/12/31 02:41:10;;;;;;;10.48;3.30;;;;;;;;;;5070526;28;20097;-92
2022/12/31 02:44:33;;;;;;;8.30;3.38;;;11.70;99.90;;;;;;5074430;28;20395;-92
2022/12/31 02:47:20;;;;;;;5.78;2.97;;;;;;;;;;5074317;28;20090;-91
2022/12/31 02:50:18;;;;;;;7.03;2.88;;;;;;;;;;5075371;28;20398;-90
2022/12/31 02:53:15;;;;;;;8.00;2.65;;;;;;;;;;5074273;28;20083;-90
2022/12/31 02:56:31;;;;;;;6.50;2.55;;;11.60;99.90;;;;;;5074077;28;20055;-92
2022/12/31 03:02:45;;;;;;;6.13;2.38;;;;;;;;;;5075532;28;20086;-91
2022/12/31 03:05:56;;;;;;;6.90;2.20;;;11.50;99.90;;;;;;5067725;28;21399;-90
2022/12/31 03:14:54;;;;;;;4.72;1.67;;;;;;;;;;5075402;28;20055;-92
2022/12/31 03:17:46;;;;;;;8.63;1.67;;;;;;;;;;5074147;28;20127;-91
2022/12/31 03:23:40;;;;;;;5.18;1.60;;;;;;;;;;5074914;28;20048;-92
2022/12/31 03:26:25;;;;;;;4.25;1.38;;;;;;;;;;5073576;28;20532;-89
2022/12/31 03:29:09;;;;;;;2.05;1.02;;;;;;;;;;5068774;28;20532;-91
2022/12/31 03:31:56;;;;;;;3.47;1.27;;;;;;;;;;5067171;28;20071;-90
2022/12/31 03:34:43;;;;;;;4.72;1.20;;;;;;;;;;5074016;28;20082;-91
2022/12/31 03:37:38;;;;;;;3.33;1.42;;;;;;;;;;5073766;28;20043;-91
2022/12/31 03:40:28;;;;;;;8.68;1.92;;;;;;;;;;5059692;28;20058;-90
2022/12/31 03:43:14;;;;;;;7.50;2.25;;;;;;;;;;5073298;28;20498;-90
2022/12/31 03:46:01;;;;;;;5.15;1.30;;;;;;;;;;5073631;28;20043;-91
2022/12/31 03:48:48;;;;;;;6.13;1.35;;;;;;;;;;5059704;28;20039;-91
2022/12/31 03:51:36;;;;;;;6.00;1.83;;;;;;;;;;5073762;28;20063;-90
2022/12/31 03:54:21;;;;;;;5.32;1.20;;;;;;;;;;5073916;28;20485;-93
2022/12/31 03:57:07;;;;;;;3.28;1.55;;;;;;;;;;5073035;28;20120;-91
2022/12/31 04:00:00;;;;;;;4.85;1.50;;;;;;;;;;5074366;28;20035;-91
2022/12/31 04:02:53;;;;;;;3.75;1.30;;;11.00;99.90;;;;;;5073445;28;20040;-91
2022/12/31 04:05:40;;;;;;;3.45;1.20;;;;;;;;;;5073271;28;20568;-92
2022/12/31 04:08:27;;;;;;;5.53;2.35;;;;;;;;;;5073738;28;20505;-90
2022/12/31 04:11:15;;;;;;;8.73;1.70;;;;;;;;;;5073595;28;20078;-92
2022/12/31 04:14:02;;;;;;;3.47;1.30;;;;;;;;;;5073086;28;20067;-92
2022/12/31 04:16:49;;;;;;;4.72;1.63;;;;;;;;;;5072933;28;20079;-91
2022/12/31 04:19:36;;;;;;;4.43;2.03;;;;;;;;;;5072977;28;20063;-91
2022/12/31 04:22:31;;;;;;;4.35;1.83;;;;;;;;;;5058542;28;20486;-91
2022/12/31 04:25:18;;;;;;;5.80;2.10;;;;;;;;;;5072592;28;20034;-92
2022/12/31 04:28:06;;;;;;;3.15;1.60;;;;;;;;;;5072917;28;20036;-91
2022/12/31 04:30:54;;;;;;;8.75;2.63;;;;;;;;;;5056403;28;20040;-92
2022/12/31 04:33:38;;;;;;;9.02;2.65;;;;;;;;;;5072953;28;20035;-93
2022/12/31 04:36:26;;;;;;;7.10;2.55;;;;;;;;;;5060898;28;20090;-92
2022/12/31 04:39:16;;;;;;;7.60;3.22;;;;;;;;;;5072512;28;20111;-92
2022/12/31 04:42:01;;;;;;;11.02;2.78;;;;;;;;;;5046883;28;20083;-90
2022/12/31 04:44:55;;;;;;;6.93;3.40;;;;;;;;;;5072929;28;20043;-92
2022/12/31 04:47:51;;;;;;;7.82;3.30;;;;;;;;;;5072702;28;20031;-94
2022/12/31 04:50:38;;;;;;;7.32;2.90;;;;;;;;;;5046610;28;20108;-92
2022/12/31 04:53:25;;;;;;;5.63;2.50;;;;;;;;;;5060518;28;20120;-92
2022/12/31 04:56:16;;;;;;;6.07;2.90;;;;;;;;;;5072347;28;20115;-93
2022/12/31 04:59:11;;;;;;;;;;;;;;;;;;;;;
2022/12/31 05:01:56;;;;;;;9.90;3.40;;;;;;;;;;5073460;28;20179;-90
2022/12/31 05:04:41;;;;;;;8.70;3.60;;;;;;;;;;5071790;28;20035;-92
2022/12/31 05:07:28;;;;;;;8.93;3.20;;;;;;;;;;5071483;28;20456;-91
2022/12/31 05:10:13;;;;;;;7.03;3.00;;;;;;;;;;5058384;28;20461;-91
2022/12/31 05:13:01;;;;;;;8.95;3.20;;;;;;;;;;5072040;28;20102;-92
2022/12/31 05:15:49;;;;;;;6.43;2.88;;;;;;;;;;5072254;28;20067;-90
2022/12/31 05:18:34;;;;;;;9.07;4.18;;;;;;;;;;5071554;28;20077;-90
2022/12/31 05:21:29;;;;;;;10.02;3.40;;;;;;;;;;5071560;28;20486;-91
2022/12/31 05:24:16;;;;;;;6.05;2.67;;;;;;;;;;5072187;28;20497;-92
2022/12/31 05:27:01;;;;;;;9.35;2.85;;;;;;;;;;5071987;28;20067;-93
2022/12/31 05:29:45;;;;;;;8.40;2.90;;;;;;;;;;5062508;28;20064;-91
2022/12/31 05:32:33;;;;;;;8.18;2.95;;;;;;;;;;5069564;28;20038;-91
2022/12/31 05:35:20;;;;;;;8.77;2.80;;;;;;;;;;5071692;28;20066;-93
2022/12/31 05:38:08;;;;;;;8.68;2.72;;;;;;;;;;5071883;28;20486;-91
2022/12/31 05:41:02;;;;;;;9.23;3.40;;;;;;;;;;5071781;28;20035;-91
2022/12/31 05:43:53;;;;;;;8.70;5.05;;;;;;;;;;5071940;28;20036;-91
2022/12/31 05:46:49;;;;;;;8.05;4.53;;;;;;;;;;5071350;28;20081;-91
2022/12/31 05:49:34;;;;;;;12.23;4.88;;;;;;;;;;5071409;28;20099;-92
2022/12/31 05:52:34;;;;;;;;;;;;;;;;;;;;;
2022/12/31 05:55:19;;;;;;;15.93;6.30;;;;;;;;;;5052602;28;20604;-91
2022/12/31 05:58:08;;;;;;;12.55;5.75;;;;;;;;;;5070202;28;20036;-92
2022/12/31 06:00:58;;;;;;;10.82;6.10;;;;;;;;;;5071719;28;20048;-92
2022/12/31 06:03:53;;;;;;;;;;;;;;;;;;;;;
2022/12/31 06:06:56;;;;;;;9.35;5.70;;;;;;;;;;5072483;28;20525;-93
2022/12/31 06:09:57;;;;;;;7.90;4.90;;;;;;;;;;5043569;28;20391;-92
2022/12/31 06:13:11;;;;;;;7.00;4.15;;;;;;;;;;5058980;28;20513;-94
2022/12/31 06:16:20;;;;;;;6.20;4.32;;;11.10;99.90;;;;;;5059225;28;20422;-93
2022/12/31 06:19:08;;;;;;;9.48;5.25;;;;;;;;;;5053128;28;20098;-93
2022/12/31 06:21:55;;;;;;;8.30;4.40;;;;;;;;;;5074329;28;20091;-93
2022/12/31 06:24:45;;;;;;;6.85;4.50;;;;;;;;;;5075411;28;20035;-94
2022/12/31 06:27:40;;;;;;;6.10;4.53;;;;;;;;;;5050656;28;20047;-91
2022/12/31 06:30:30;;;;;;;8.07;4.05;;;;;;;;;;5073561;28;20035;-92
2022/12/31 06:33:36;;;;;;;6.65;3.95;;;;;;;;;;5069477;28;20060;-91
2022/12/31 06:36:41;;;;;;;5.70;3.15;;;11.10;99.90;;;;;;5060560;28;20051;-92
2022/12/31 06:39:47;;;;;;;7.32;3.10;;;;;;;;;;5060757;28;20505;-93
2022/12/31 06:42:39;;;;;;;4.75;2.70;;;;;;;;;;5071460;28;20457;-92
2022/12/31 06:45:29;;;;;;;4.22;2.20;;;;;;;;;;5067826;28;20102;-91
2022/12/31 06:55:34;;;;;;;3.47;1.90;;;;;;;;;;5081758;28;20097;-93
2022/12/31 06:58:29;;;;;;;5.13;1.90;;;;;;;;;;5049750;28;20086;-92
2022/12/31 07:05:21;;;;;;;4.20;1.83;;;;;;;;;;5069638;28;20115;-94
2022/12/31 07:43:08;;;;;;;4.70;2.50;;;;;;;;;;5956964;23;20065;31
2022/12/31 07:55:37;;;;;;;;;;;;;;;;;;;;;
2022/12/31 07:58:28;;;;;;;6.20;3.05;;;;;;;;;;4965790;28;20045;-95
2022/12/31 08:01:25;;;;;;;5.35;3.10;;;;;;;;;;4973821;28;20100;-95
2022/12/31 08:04:43;;;;;;;3.78;2.75;;;;;;;;;;4976262;28;20041;-94
2022/12/31 08:07:44;;;;;;;4.55;2.50;;;;;;;;;;4974843;28;20133;-93
2022/12/31 08:10:45;;;;;;;4.00;2.60;;;;;;;;;;4975751;28;20034;-95
2022/12/31 08:13:33;;;;;;;2.70;1.88;;;;;;;;;;4989784;28;20097;-92
2022/12/31 08:16:20;;;;;;;3.17;1.70;;;;;;;;;;4960138;28;20437;-93
2022/12/31 08:19:29;;;;;;;2.42;1.60;;;;;;;;;;4977254;28;20146;-95
2022/12/31 08:22:22;;;;;;;3.40;1.50;;;;;;;;;;4976214;28;20046;-95
2022/12/31 08:25:36;;;;;;;2.00;1.30;;;;;;;;;;4977061;28;20111;-93
2022/12/31 08:28:42;;;;;;;2.97;1.55;;;;;;;;;;4959371;28;20054;-96
2022/12/31 08:31:44;;;;;;;2.90;1.90;;;;;;;;;;4976533;28;20030;-94
2022/12/31 08:35:00;;;;;;;5.30;2.13;;;11.20;99.90;;;;;;4974739;28;20117;-95
2022/12/31 08:37:45;;;;;;;4.10;2.30;;;;;;;;;;4975600;28;20042;-94
2022/12/31 08:41:14;;;;;;;4.30;2.85;;;11.30;99.90;;;;;;4974471;28;20070;-94
2022/12/31 08:44:10;;;;;;;5.38;3.45;;;;;;;;;;4975713;28;20077;-96
2022/12/31 08:47:10;;;;;;;7.05;3.40;;;;;;;;;;4974463;28;20041;-94
2022/12/31 08:50:02;;;;;;;5.43;3.42;;;;;;;;;;4964986;28;20077;-95
2022/12/31 08:52:47;;;;;;;5.38;3.67;;;;;;;;;;4981367;28;20077;-93
2022/12/31 08:55:32;;;;;;;8.20;3.85;;;;;;;;;;4972801;28;20528;-92
2022/12/31 08:58:29;;;;;;;5.65;4.00;;;;;;;;;;4981607;28;20041;-94
2022/12/31 09:01:17;;;;;;;5.60;4.15;;;;;;;;;;4984469;28;20133;-89
2022/12/31 09:04:09;;;;;;;5.30;3.90;;;;;;;;;;4994267;28;20088;-92
2022/12/31 09:07:10;;;;;;;6.68;3.92;;;;;;;;;;4991048;28;20045;-94
2022/12/31 09:10:30;;;;;;;4.88;3.42;;;;;;;;;;4973299;28;20112;-94
2022/12/31 09:13:26;;;;;;;4.18;2.92;;;;;;;;;;4989055;28;20037;-95
2022/12/31 09:16:31;;;;;;;3.75;2.70;;;;;;;;;;4990206;28;20099;-94
2022/12/31 09:19:23;;;;;;;4.68;3.22;;;;;;;;;;4981587;28;20085;-95
2022/12/31 09:22:21;;;;;;;4.22;2.63;;;;;;;;;;5010799;28;20057;-94
2022/12/31 09:30:17;;;;;;;4.57;2.28;;;;;;;;;;5004828;28;20050;-95
2022/12/31 09:33:36;;;;;;;;;;;;;;;;;;;;;
2022/12/31 09:36:37;;;;;;;;;;;;;;;;;;;;;
2022/12/31 09:39:31;;;;;;;4.45;2.17;;;;;;;;;;4988064;23;20146;-92
2022/12/31 09:46:13;;;;;;;6.05;1.85;;;12.60;99.90;;;;;;2173152;23;20062;-93
2022/12/31 09:49:15;;;;;;;2.93;1.50;;;;;;;;;;4886537;29;20048;-95
2022/12/31 09:53:01;;;;;;;3.92;1.42;;;;;;;;;;4901974;29;20043;-95
2022/12/31 09:55:55;;;;;;;;;;;;;;;;;;;;;
2022/12/31 09:59:08;;;;;;;2.00;1.10;;;;;;;;;;4901336;29;20039;-96
2022/12/31 10:06:01;;;;;;;3.38;1.20;;;12.90;99.90;;;;;;4904287;28;20056;-92
2022/12/31 10:08:55;;;;;;;3.85;1.27;;;;;;;;;;4991096;28;20045;-95
2022/12/31 10:11:59;;;;;;;3.08;1.50;;;;;;;;;;4983869;28;20412;-95
2022/12/31 10:14:54;;;;;;;2.88;1.27;;;;;;;;;;4984306;28;20153;-95
2022/12/31 10:17:39;;;;;;;3.20;1.20;;;;;;;;;;4981595;28;20413;-91
2022/12/31 10:20:35;;;;;;;4.10;1.13;;;;;;;;;;4973866;28;20447;-93
2022/12/31 10:23:38;;;;;;;2.40;1.02;;;;;;;;;;4976324;28;20053;-92
2022/12/31 10:26:48;;;;;;;2.35;1.08;;;13.10;99.90;;;;;;4972207;28;20089;-93
2022/12/31 10:29:53;;;;;;;4.35;1.30;;;;;;;;;;4962834;28;20041;-92
2022/12/31 10:33:15;;;;;;;2.78;1.27;;;13.10;99.90;;;;;;4992161;28;20046;-91
2022/12/31 10:36:06;;;;;;;4.32;1.10;;;;;;;;;;4978266;28;20515;-91
2022/12/31 10:39:03;;;;;;;7.15;1.10;;;;;;;;;;4977982;28;20041;-92
2022/12/31 10:42:12;;;;;;;6.03;1.75;;;;;;;;;;4978742;28;20153;-92
2022/12/31 10:45:48;;;;;;;5.60;1.48;;;13.30;99.90;;;;;;4978001;28;20038;-92
2022/12/31 10:48:55;;;;;;;4.47;1.57;;;;;;;;;;4994063;28;20034;-93
2022/12/31 10:51:58;;;;;;;11.80;2.20;;;;;;;;;;4992825;28;20052;-92
2022/12/31 10:55:11;;;;;;;;;;;;;;;;;;;;;
2022/12/31 10:58:02;;;;;;;5.67;1.93;;;;;;;;;;4979142;28;20067;-93
2022/12/31 11:01:08;;;;;;;5.05;1.50;;;;;;;;;;4978175;28;20077;-91
2022/12/31 11:03:53;;;;;;;7.82;1.58;;;;;;;;;;4974890;28;20046;-92
2022/12/31 11:06:47;;;;;;;8.68;2.00;;;;;;;;;;4980708;28;20072;-91
2022/12/31 11:10:16;;;;;;;5.03;1.52;;;;;;;;;;4981357;28;20097;-92
2022/12/31 11:13:10;;;;;;;6.22;1.50;;;;;;;;;;4995984;28;20496;-91
2022/12/31 11:16:36;;;;;;;7.93;2.08;;;13.60;99.90;;;;;;4983936;28;20045;-94
2022/12/31 11:19:25;;;;;;;10.80;2.35;;;;;;;;;;4994745;28;20473;-94
2022/12/31 11:22:53;;;;;;;;;;;;;;;;;;;;;
2022/12/31 11:25:50;;;;;;;12.10;2.00;;;;;;;;;;4965718;28;20500;-94
2022/12/31 11:29:13;;;;;;;9.00;2.83;;;13.70;99.90;;;;;;4997983;28;20045;-95
2022/12/31 11:32:16;;;;;;;8.05;1.77;;;;;;;;;;4982059;28;20041;-95
2022/12/31 11:35:37;;;;;;;4.45;1.50;;;13.60;99.90;;;;;;4975268;28;20088;-94
2022/12/31 11:38:31;;;;;;;5.93;1.58;;;13.60;99.90;;;;;;4973200;28;20041;-92
2022/12/31 11:41:55;;;;;;;7.28;3.35;;;13.50;99.90;;;;;;4995366;28;20033;-92
2022/12/31 11:44:51;;;;;;;5.03;1.83;;;;;;;;;;4984525;28;20040;-96
2022/12/31 11:47:58;;;;;;;3.15;1.27;;;;;;;;;;4981929;28;20045;-96
2022/12/31 11:50:54;;;;;;;3.15;1.67;;;;;;;;;;4979232;28;20132;-91
2022/12/31 11:53:46;;;;;;;4.95;2.00;;;;;;;;;;4984003;28;20111;-94
2022/12/31 11:56:35;;;;;;;5.03;1.90;;;;;;;;;;4980488;28;20463;-93
2022/12/31 11:59:20;;;;;;;5.88;2.70;;;;;;;;;;4975099;28;20076;-93
2022/12/31 12:02:31;;;;;;;7.90;3.33;;;13.40;99.90;;;;;;4978893;28;20037;-93
2022/12/31 12:05:24;;;;;;;7.70;4.43;;;13.40;99.90;;;;;;4979913;28;20045;-93
2022/12/31 12:20:34;;;;;;;10.70;5.15;;;;;;;;;;5022711;27;2865336;-93
2022/12/31 12:23:41;;;;;;;10.80;4.45;;;;;;;;;;5031849;28;20102;-92
2022/12/31 12:26:46;;;;;;;10.10;4.07;;;;;;;;;;5060287;27;20046;-94
2022/12/31 12:29:39;;;;;;;9.00;3.33;;;;;;;;;;5063989;28;20123;-94
2022/12/31 12:35:37;;;;;;;11.68;5.35;;;;;;;;;;5048928;28;20036;-91
2022/12/31 12:38:22;;;;;;;7.65;4.15;;;;;;;;;;5035106;28;20112;-87
2022/12/31 12:41:24;;;;;;;10.70;4.40;;;13.50;99.90;;;;;;5041623;28;20113;-89
2022/12/31 12:44:14;;;;;;;6.07;3.97;;;13.60;99.90;;;;;;5037799;28;20039;-91
2022/12/31 12:47:02;;;;;;;10.23;4.00;;;13.60;99.90;;;;;;5042624;28;20056;-88
2022/12/31 12:49:53;;;;;;;5.90;3.20;;;13.60;99.90;;;;;;5038446;28;20048;-88
2022/12/31 12:52:44;;;;;;;8.98;4.63;;;13.60;99.90;;;;;;5044433;28;20128;-88
2022/12/31 12:55:28;;;;;;;6.55;3.35;;;;;;;;;;5026849;28;20394;-89
2022/12/31 12:58:49;;;;;;;10.35;3.45;;;13.70;99.90;;;;;;5031405;27;20172;-89
2022/12/31 13:01:45;;;;;;;8.20;2.40;;;;;;;;;;5035865;27;20489;-89
2022/12/31 13:04:54;;;;;;;6.38;2.60;;;13.70;99.90;;;;;;5037982;27;20037;-89
2022/12/31 13:07:41;;;;;;;10.15;3.17;;;;;;;;;;5077195;28;20140;-90
2022/12/31 13:10:26;;;;;;;8.45;2.42;;;;;;;;;;5018662;28;20036;-89
2022/12/31 13:13:16;;;;;;;10.85;2.88;;;;;;;;;;5041519;27;20120;-90
2022/12/31 13:16:09;;;;;;;8.75;2.42;;;;;;;;;;5071664;28;20043;-89
2022/12/31 13:19:17;;;;;;;5.75;1.67;;;13.60;99.90;;;;;;5019121;28;20064;-91
2022/12/31 13:22:43;;;;;;;10.50;2.75;;;13.50;99.90;;;;;;5016241;28;20032;-91
2022/12/31 13:25:31;;;;;;;7.28;2.83;;;;;;;;;;5019909;28;20440;-90
2022/12/31 13:28:16;;;;;;;12.20;2.95;;;;;;;;;;5030179;27;20072;-90
2022/12/31 13:31:08;;;;;;;8.50;2.03;;;13.40;99.90;;;;;;5030901;28;20036;-89
2022/12/31 13:33:58;;;;;;;7.70;2.17;;;13.40;99.90;;;;;;5073417;27;20080;-85
2022/12/31 13:36:46;;;;;;;8.95;2.58;;;13.30;99.90;;;;;;5059061;27;20061;-87
2022/12/31 13:39:36;;;;;;;4.80;1.70;;;13.30;99.90;;;;;;5031528;27;20084;-88
2022/12/31 13:42:27;;;;;;;10.60;3.78;;;13.20;99.90;;;;;;5099954;27;20190;-90
2022/12/31 13:45:23;;;;;;;6.88;3.10;;;13.20;99.90;;;;;;5058556;27;20049;-85
2022/12/31 13:48:19;;;;;;;21.23;11.38;;;13.10;99.90;;;;;;5035904;27;20127;-88
2022/12/31 13:51:14;;;;;;;5.05;1.85;;;13.10;99.90;;;;;;5102900;27;20045;-88
2022/12/31 13:54:22;;;;;;;7.18;1.98;;;13.00;99.90;;;;;;5056504;28;20499;-87
2022/12/31 13:57:35;;;;;;;5.25;1.77;;;13.00;99.90;;;;;;5057120;27;20038;-88
2022/12/31 14:00:23;;;;;;;5.82;2.10;;;13.00;99.90;;;;;;5103645;27;20066;-87
2022/12/31 14:03:50;;;;;;;7.63;3.03;;;13.00;99.90;;;;;;5032360;27;20074;-89
2022/12/31 14:06:48;;;;;;;4.93;2.38;;;13.00;99.90;;;;;;5086465;27;20032;-86
2022/12/31 14:09:36;;;;;;;6.10;2.15;;;13.00;99.90;;;;;;5044623;28;20041;-89
2022/12/31 14:12:36;;;;;;;4.55;1.80;;;13.00;99.90;;;;;;5054363;27;20030;-85
2022/12/31 14:15:38;;;;;;;6.57;2.30;;;;;;;;;;5091129;27;20058;-87
2022/12/31 14:18:27;;;;;;;4.90;2.33;;;;;;;;;;5098910;27;20414;-88
2022/12/31 14:21:31;;;;;;;6.18;2.00;;;13.10;99.90;;;;;;5055991;28;20411;-88
2022/12/31 14:24:41;;;;;;;8.95;3.28;;;13.10;99.90;;;;;;5015704;28;20032;-87
2022/12/31 14:27:31;;;;;;;5.65;2.95;;;13.10;99.90;;;;;;5016973;28;20040;-88
2022/12/31 14:30:19;;;;;;;6.78;3.67;;;13.10;99.90;;;;;;5028427;28;20048;-86
2022/12/31 14:33:20;;;;;;;7.57;3.08;;;13.10;99.90;;;;;;5014180;28;20540;-86
2022/12/31 14:36:36;;;;;;;5.10;3.45;;;13.10;99.90;;;;;;5029670;28;20047;-86
2022/12/31 14:39:20;;;;;;;7.57;3.63;;;;;;;;;;5015899;28;20060;-85
2022/12/31 14:42:30;;;;;;;8.52;4.60;;;13.10;99.90;;;;;;5026686;28;20079;-86
2022/12/31 14:45:20;;;;;;;8.18;4.38;;;;;;;;;;5027974;28;20090;-89
2022/12/31 14:48:27;;;;;;;8.45;4.60;;;13.20;99.90;;;;;;5028836;28;20060;-88
2022/12/31 14:51:13;;;;;;;8.68;4.38;;;;;;;;;;5015481;28;20037;-87
2022/12/31 14:53:58;;;;;;;9.13;6.38;;;;;;;;;;5015724;28;20044;-89
2022/12/31 14:56:44;;;;;;;7.47;4.22;;;13.30;99.90;;;;;;5015015;28;20041;-95
2022/12/31 14:59:30;;;;;;;8.52;5.78;;;13.30;99.90;;;;;;5040273;27;20088;-90
2022/12/31 15:02:32;;;;;;;8.52;5.75;;;13.30;99.90;;;;;;5032490;28;20237;-92
2022/12/31 15:05:53;;;;;;;10.32;6.05;;;13.30;99.90;;;;;;5034013;28;20044;-88
2022/12/31 15:08:47;;;;;;;9.68;4.82;;;;;;;;;;5031930;27;20076;-88
2022/12/31 15:11:59;;;;;;;11.52;5.75;;;13.40;99.90;;;;;;5026586;28;20082;-91
2022/12/31 15:14:44;;;;;;;10.18;6.15;;;;;;;;;;5044988;27;20562;-89
2022/12/31 15:17:37;;;;;;;9.13;5.55;;;;;;;;;;5026702;28;20102;-89
2022/12/31 15:20:24;;;;;;;9.90;5.35;;;;;;;;;;5026999;28;20052;-90
2022/12/31 15:23:42;;;;;;;10.35;6.00;;;13.50;99.90;;;;;;5037186;27;20067;-89
2022/12/31 15:26:31;;;;;;;9.25;5.68;;;;;;;;;;5037167;27;20044;-90
2022/12/31 15:29:25;;;;;;;13.55;6.60;;;;;;;;;;4993352;28;20047;-90
2022/12/31 15:32:18;;;;;;;8.73;4.88;;;;;;;;;;5022796;28;20586;-90
2022/12/31 15:35:27;;;;;;;13.00;6.20;;;13.60;99.90;;;;;;5014059;28;20033;-88
2022/12/31 15:38:12;;;;;;;10.88;5.72;;;;;;;;;;5003914;28;20056;-89
2022/12/31 15:40:57;;;;;;;8.93;6.20;;;;;;;;;;5013807;28;20106;-93
2022/12/31 15:43:47;;;;;;;10.02;5.35;;;;;;;;;;5029268;28;20039;-92
2022/12/31 15:46:36;;;;;;;12.38;9.10;;;;;;;;;;5014654;28;20180;-88
2022/12/31 15:49:22;;;;;;;12.07;8.60;;;13.60;99.90;;;;;;5014437;28;20044;-89
2022/12/31 15:52:14;;;;;;;9.68;7.00;;;;;;;;;;5014032;28;20045;-88
2022/12/31 15:55:04;;;;;;;15.55;9.68;;;;;;;;;;5013804;28;20074;-90
2022/12/31 15:57:49;;;;;;;14.15;10.15;;;;;;;;;;5026609;28;20033;-85
2022/12/31 16:00:51;;;;;;;9.30;5.70;;;13.60;99.90;;;;;;5028376;28;20032;-88
2022/12/31 16:03:36;;;;;;;8.13;5.90;;;;;;;;;;5028202;28;20402;-86
2022/12/31 16:06:21;;;;;;;9.55;6.75;;;;;;;;;;5027913;28;20502;-88
2022/12/31 16:09:17;;;;;;;9.75;5.80;;;13.50;99.90;;;;;;5012268;28;20048;-90
2022/12/31 16:12:13;;;;;;;13.73;8.07;;;13.50;99.90;;;;;;5026856;28;20037;-89
2022/12/31 16:14:58;;;;;;;11.60;6.85;;;;;;;;;;5027510;28;20040;-87
2022/12/31 16:17:44;;;;;;;10.57;6.00;;;;;;;;;;5020280;28;20176;-87
2022/12/31 16:20:30;;;;;;;16.63;10.02;;;13.40;99.90;;;;;;5028559;28;20136;-89
2022/12/31 16:23:22;;;;;;;15.18;7.70;;;;;;;;;;5028684;28;20037;-88
2022/12/31 16:26:09;;;;;;;17.55;10.70;;;13.40;99.90;;;;;;5037246;28;20113;-87
2022/12/31 16:28:58;;;;;;;16.85;8.23;;;13.40;99.90;;;;;;5029631;28;20506;-91
2022/12/31 16:31:45;;;;;;;17.50;10.35;;;13.40;99.90;;;;;;5029063;28;20039;-87
2022/12/31 16:34:38;;;;;;;21.25;14.18;;;13.40;99.90;;;;;;5014180;28;20036;-88
2022/12/31 16:45:06;;;;;;;40.60;31.02;;;;;;;;;;5051085;28;20514;-87
2022/12/31 16:48:49;;;;;;;33.83;25.17;;;13.40;99.90;;;;;;5049346;28;20549;-89
2022/12/31 16:55:29;;;;;;;;;;;;;;;;;;;;;
2022/12/31 16:58:54;;;;;;;29.35;20.17;;;;;;;;;;5028831;28;20044;-88
2022/12/31 17:09:35;;;;;;;46.97;27.75;;;;;;;;;;5002136;28;20060;-86
2022/12/31 17:23:28;;;;;;;;;;;13.20;99.90;;;;;;4968657;28;20420;-88
2022/12/31 17:48:48;;;;;;;;;;;;;;;;;;;;;
2022/12/31 17:59:43;;;;;;;;;;;;;;;;;;;;;
2022/12/31 18:06:37;;;;;;;34.45;21.23;;;;;;;;;;6038488;23;20067;-88
2022/12/31 18:13:14;;;;;;;;;;;;;;;;;;;;;
2022/12/31 18:15:58;;;;;;;36.97;18.75;;;;;;;;;;6169042;23;20454;-86
2022/12/31 18:18:44;;;;;;;30.48;20.15;;;;;;;;;;6167935;23;20035;-87
2022/12/31 18:21:31;;;;;;;29.48;16.30;;;13.00;99.90;;;;;;6282779;22;20022;-87
2022/12/31 18:24:19;;;;;;;31.58;19.67;;;;;;;;;;6283286;22;20437;-90
2022/12/31 18:27:29;;;;;;;29.17;17.65;;;13.00;99.90;;;;;;6261043;22;20571;-88
2022/12/31 18:30:15;;;;;;;32.97;16.48;;;;;;;;;;6260329;22;20072;-87
2022/12/31 18:33:00;;;;;;;39.35;22.58;;;;;;;;;;6283836;22;20038;-87
2022/12/31 18:35:53;;;;;;;36.60;20.27;;;;;;;;;;6284278;22;20384;-93
2022/12/31 18:38:38;;;;;;;36.13;21.57;;;;;;;;;;6239341;22;20050;-88
2022/12/31 18:41:26;;;;;;;35.80;19.90;;;12.90;99.90;;;;;;6283113;22;20448;-87
2022/12/31 18:44:12;;;;;;;42.40;23.38;;;12.90;99.90;;;;;;6283647;22;20347;-87
2022/12/31 18:47:00;;;;;;;32.75;16.05;;;;;;;;;;6282926;22;20110;-87
2022/12/31 18:49:47;;;;;;;33.88;19.48;;;;;;;;;;6253666;22;20018;-89
2022/12/31 18:52:34;;;;;;;27.35;17.00;;;;;;;;;;6275198;22;20385;-89
2022/12/31 18:55:27;;;;;;;30.60;17.95;;;;;;;;;;6250671;22;20069;-88
2022/12/31 18:58:11;;;;;;;28.75;16.45;;;;;;;;;;6253916;22;20022;-87
2022/12/31 19:00:56;;;;;;;38.67;19.65;;;;;;;;;;6253485;22;20054;-88
2022/12/31 19:03:41;;;;;;;25.95;15.40;;;;;;;;;;6232096;22;20026;-88
2022/12/31 19:07:10;;;;;;;32.85;16.73;;;;;;;;;;6249832;22;20490;-91
2022/12/31 19:10:25;;;;;;;;;;;;;;;;;;;;;
2022/12/31 19:13:45;;;;;;;34.90;20.23;;;12.90;99.90;;;;;;6253907;22;20022;-88
2022/12/31 19:23:59;;;;;;;29.20;18.58;;;;;;;;;;6230380;22;20046;-86
2022/12/31 19:26:53;;;;;;;23.00;12.98;;;;;;;;;;6248714;22;20065;-87
2022/12/31 19:33:37;;;;;;;;;;;;;;;;;;;;;
2022/12/31 19:40:23;;;;;;;20.92;10.77;;;;;;;;;;6234452;22;20381;-87
2022/12/31 19:43:11;;;;;;;19.88;9.20;;;;;;;;;;6272097;22;20066;-86
2022/12/31 19:46:04;;;;;;;21.27;9.63;;;;;;;;;;6249240;22;20102;-87
2022/12/31 19:49:09;;;;;;;19.50;9.10;;;;;;;;;;6218710;23;20094;-87
2022/12/31 19:51:59;;;;;;;21.73;12.07;;;;;;;;;;6240587;23;20070;-88
2022/12/31 19:54:59;;;;;;;21.15;10.35;;;;;;;;;;6239885;23;20117;-87
2022/12/31 19:58:05;;;;;;;24.50;11.15;;;;;;;;;;6220103;23;20027;-84
2022/12/31 20:04:42;;;;;;;16.65;7.97;;;;;;;;;;6240290;22;20554;-86
2022/12/31 20:08:01;;;;;;;15.82;7.13;;;;;;;;;;6239846;23;20493;-90
2022/12/31 20:11:14;;;;;;;;;;;;;;;;;;;;;